createdAt,value
2018-06-12T00:00:57.639Z,20.80
2018-06-12T00:03:39.040Z,20.80
2018-06-12T00:06:20.342Z,20.80
2018-06-12T00:09:01.606Z,20.70
2018-06-12T00:11:42.745Z,20.70
2018-06-12T00:14:24.900Z,20.70
2018-06-12T00:17:06.311Z,20.70
2018-06-12T00:19:47.596Z,20.70
2018-06-12T00:22:28.891Z,20.70
2018-06-12T00:25:10.057Z,20.60
2018-06-12T00:27:51.555Z,20.60
2018-06-12T00:30:32.838Z,20.60
2018-06-12T00:33:17.058Z,20.60
2018-06-12T00:35:58.810Z,20.60
2018-06-12T00:38:40.129Z,20.60
2018-06-12T00:41:21.467Z,20.60
2018-06-12T00:44:02.972Z,20.60
2018-06-12T00:46:44.368Z,20.50
2018-06-12T00:49:26.167Z,20.50
2018-06-12T00:52:07.564Z,20.50
2018-06-12T00:54:48.860Z,20.50
2018-06-12T00:57:30.195Z,20.50
2018-06-12T01:00:11.440Z,20.50
2018-06-12T01:02:53.334Z,20.50
2018-06-12T01:05:34.629Z,20.50
2018-06-12T01:08:15.907Z,20.40
2018-06-12T01:10:57.719Z,20.40
2018-06-12T01:13:38.995Z,20.40
2018-06-12T01:16:20.336Z,20.40
2018-06-12T01:19:01.747Z,20.30
2018-06-12T01:21:43.209Z,20.30
2018-06-12T01:24:26.286Z,20.30
2018-06-12T01:27:07.753Z,20.30
2018-06-12T01:29:49.156Z,20.20
2018-06-12T01:32:30.336Z,20.20
2018-06-12T01:35:11.355Z,20.20
2018-06-12T01:37:53.306Z,20.10
2018-06-12T01:40:34.880Z,20.10
2018-06-12T01:43:16.029Z,20.20
2018-06-12T01:45:57.617Z,20.20
2018-06-12T01:48:38.992Z,20.20
2018-06-12T01:51:20.312Z,20.20
2018-06-12T01:54:01.595Z,20.10
2018-06-12T01:56:42.998Z,20.10
2018-06-12T02:02:46.904Z,20.00
2018-06-12T02:05:28.680Z,20.00
2018-06-12T02:08:10.071Z,19.90
2018-06-12T02:10:52.214Z,19.90
2018-06-12T02:13:33.921Z,19.90
2018-06-12T02:16:15.377Z,19.90
2018-06-12T02:18:56.912Z,19.90
2018-06-12T02:21:38.394Z,19.90
2018-06-12T02:24:19.657Z,19.90
2018-06-12T02:27:01.232Z,20.00
2018-06-12T02:29:42.557Z,20.00
2018-06-12T02:32:24.135Z,20.20
2018-06-12T02:35:05.557Z,20.30
2018-06-12T02:37:46.964Z,20.30
2018-06-12T02:40:58.511Z,20.30
2018-06-12T02:43:41.174Z,20.30
2018-06-12T02:46:24.043Z,20.30
2018-06-12T02:49:05.204Z,20.30
2018-06-12T02:51:46.436Z,20.30
2018-06-12T02:54:27.900Z,20.30
2018-06-12T02:57:09.227Z,20.20
2018-06-12T02:59:51.604Z,20.20
2018-06-12T03:02:32.941Z,20.20
2018-06-12T03:05:14.197Z,20.20
2018-06-12T03:07:56.356Z,20.20
2018-06-12T03:10:38.016Z,20.20
2018-06-12T03:13:19.531Z,20.20
2018-06-12T03:16:01.038Z,20.30
2018-06-12T03:18:42.196Z,20.40
2018-06-12T03:21:24.025Z,20.40
2018-06-12T03:24:06.638Z,20.50
2018-06-12T03:26:47.834Z,20.50
2018-06-12T03:29:29.535Z,20.60
2018-06-12T03:32:10.864Z,20.60
2018-06-12T03:34:53.016Z,20.50
2018-06-12T03:37:34.540Z,20.50
2018-06-12T03:40:15.854Z,20.50
2018-06-12T03:42:57.228Z,20.50
2018-06-12T03:45:38.601Z,20.50
2018-06-12T03:48:21.275Z,20.40
2018-06-12T03:51:02.435Z,20.20
2018-06-12T03:53:44.051Z,19.90
2018-06-12T03:56:26.265Z,19.70
2018-06-12T03:59:07.831Z,19.70
2018-06-12T04:01:49.623Z,19.60
2018-06-12T04:04:32.024Z,19.60
2018-06-12T04:07:13.408Z,19.50
2018-06-12T04:09:54.992Z,19.50
2018-06-12T04:12:36.448Z,19.50
2018-06-12T04:15:17.783Z,19.50
2018-06-12T04:17:59.226Z,19.40
2018-06-12T04:20:53.271Z,19.40
2018-06-12T04:23:34.684Z,19.50
2018-06-12T04:26:16.025Z,19.40
2018-06-12T04:28:57.361Z,19.30
2018-06-12T04:31:39.016Z,19.30
2018-06-12T04:34:21.432Z,19.40
2018-06-12T04:37:02.847Z,19.40
2018-06-12T04:39:44.156Z,19.40
2018-06-12T04:42:25.701Z,19.50
2018-06-12T04:45:07.565Z,19.50
2018-06-12T04:47:48.897Z,19.50
2018-06-12T04:50:31.256Z,19.50
2018-06-12T04:53:12.627Z,19.50
2018-06-12T04:55:54.199Z,19.50
2018-06-12T04:58:35.510Z,19.50
2018-06-12T05:01:16.782Z,19.50
2018-06-12T05:03:58.377Z,19.60
2018-06-12T05:06:40.194Z,19.60
2018-06-12T05:09:22.328Z,19.60
2018-06-12T05:12:04.708Z,19.60
2018-06-12T05:14:46.409Z,19.70
2018-06-12T05:17:27.818Z,19.70
2018-06-12T05:20:09.213Z,19.70
2018-06-12T05:22:51.416Z,19.70
2018-06-12T05:25:32.848Z,19.80
2018-06-12T05:28:14.164Z,19.70
2018-06-12T05:30:55.809Z,19.70
2018-06-12T05:33:36.892Z,19.80
2018-06-12T05:36:18.192Z,19.80
2018-06-12T05:38:59.463Z,19.90
2018-06-12T05:41:41.909Z,19.90
2018-06-12T05:44:24.145Z,19.90
2018-06-12T05:47:05.720Z,20.00
2018-06-12T05:49:47.170Z,20.00
2018-06-12T05:52:28.490Z,20.10
2018-06-12T05:55:09.788Z,20.10
2018-06-12T05:57:51.361Z,20.20
2018-06-12T06:00:33.669Z,20.30
2018-06-12T06:03:15.171Z,20.30
2018-06-12T06:05:56.845Z,20.30
2018-06-12T06:08:38.374Z,20.40
2018-06-12T06:11:21.401Z,20.50
2018-06-12T06:14:03.545Z,20.60
2018-06-12T06:16:44.812Z,20.70
2018-06-12T06:19:26.479Z,20.80
2018-06-12T06:22:07.881Z,20.80
2018-06-12T06:24:49.265Z,20.90
2018-06-12T06:27:30.893Z,21.00
2018-06-12T06:30:12.212Z,21.10
2018-06-12T06:32:54.144Z,21.20
2018-06-12T06:35:35.445Z,21.30
2018-06-12T06:38:16.741Z,21.30
2018-06-12T06:40:59.139Z,21.40
2018-06-12T06:43:40.479Z,21.50
2018-06-12T06:46:22.231Z,21.60
2018-06-12T06:49:03.771Z,21.70
2018-06-12T06:51:45.137Z,21.80
2018-06-12T06:54:26.991Z,22.00
2018-06-12T06:57:08.411Z,22.20
2018-06-12T06:59:49.876Z,22.30
2018-06-12T07:02:31.536Z,22.40
2018-06-12T07:05:13.052Z,22.40
2018-06-12T07:07:55.163Z,22.40
2018-06-12T07:10:37.147Z,22.40
2018-06-12T07:13:18.480Z,22.30
2018-06-12T07:15:59.938Z,22.10
2018-06-12T07:18:42.363Z,22.00
2018-06-12T07:21:25.335Z,21.80
2018-06-12T07:24:06.669Z,21.70
2018-06-12T07:26:48.093Z,21.70
2018-06-12T07:29:29.494Z,21.60
2018-06-12T07:32:10.876Z,21.50
2018-06-12T07:34:52.908Z,21.50
2018-06-12T07:37:34.257Z,21.50
2018-06-12T07:40:15.701Z,21.60
2018-06-12T07:42:57.111Z,21.70
2018-06-12T07:45:38.539Z,21.80
2018-06-12T07:48:20.009Z,21.90
2018-06-12T07:51:01.328Z,21.90
2018-06-12T07:53:42.673Z,22.00
2018-06-12T07:56:26.646Z,22.00
2018-06-12T07:59:07.996Z,22.10
2018-06-12T08:01:49.501Z,22.10
2018-06-12T08:04:31.904Z,22.20
2018-06-12T08:07:13.249Z,22.10
2018-06-12T08:09:55.067Z,22.00
2018-06-12T08:12:36.546Z,21.80
2018-06-12T08:15:18.654Z,21.70
2018-06-12T08:18:00.092Z,21.60
2018-06-12T08:20:41.380Z,21.50
2018-06-12T08:23:24.340Z,21.30
2018-06-12T08:26:23.413Z,21.20
2018-06-12T08:29:05.664Z,20.90
2018-06-12T08:31:47.060Z,20.80
2018-06-12T08:34:28.440Z,20.70
2018-06-12T08:37:09.725Z,20.60
2018-06-12T08:39:51.716Z,20.50
2018-06-12T08:42:32.904Z,20.50
2018-06-12T08:45:14.101Z,20.40
2018-06-12T08:47:56.029Z,20.50
2018-06-12T08:50:37.487Z,20.50
2018-06-12T08:53:18.924Z,20.60
2018-06-12T08:56:00.343Z,20.70
2018-06-12T08:58:41.660Z,20.80
2018-06-12T09:01:24.752Z,20.90
2018-06-12T09:04:06.157Z,20.80
2018-06-12T09:06:47.599Z,20.80
2018-06-12T09:09:29.172Z,20.80
2018-06-12T09:12:10.221Z,20.80
2018-06-12T09:14:51.818Z,20.80
2018-06-12T09:17:37.684Z,20.80
2018-06-12T09:20:25.578Z,20.80
2018-06-12T09:23:06.944Z,20.80
2018-06-12T09:25:49.076Z,20.80
2018-06-12T09:28:31.259Z,20.80
2018-06-12T09:31:12.770Z,20.70
2018-06-12T09:33:54.384Z,20.70
2018-06-12T09:36:36.398Z,20.70
2018-06-12T09:39:17.938Z,20.90
2018-06-12T09:41:59.426Z,21.00
2018-06-12T09:44:40.781Z,21.10
2018-06-12T09:47:22.605Z,21.00
2018-06-12T09:50:04.040Z,20.90
2018-06-12T09:52:45.343Z,20.80
2018-06-12T09:55:27.468Z,20.60
2018-06-12T09:58:08.934Z,20.30
2018-06-12T10:00:55.629Z,20.00
2018-06-12T10:03:37.092Z,19.70
2018-06-12T10:06:18.382Z,19.60
2018-06-12T10:09:00.544Z,19.50
2018-06-12T10:11:41.832Z,19.40
2018-06-12T10:14:24.443Z,19.20
2018-06-12T10:17:05.944Z,19.10
2018-06-12T10:19:47.420Z,19.00
2018-06-12T10:22:28.925Z,18.80
2018-06-12T10:25:10.256Z,18.80
2018-06-12T10:27:52.473Z,18.80
2018-06-12T10:30:35.365Z,18.80
2018-06-12T10:33:16.771Z,18.70
2018-06-12T10:35:58.166Z,18.60
2018-06-12T10:38:39.561Z,18.60
2018-06-12T10:41:21.677Z,18.50
2018-06-12T10:44:03.868Z,18.50
2018-06-12T10:46:45.202Z,18.40
2018-06-12T10:49:27.483Z,18.50
2018-06-12T10:52:09.464Z,18.50
2018-06-12T10:54:51.689Z,18.60
2018-06-12T10:57:33.233Z,18.50
2018-06-12T11:00:14.539Z,18.50
2018-06-12T11:02:56.530Z,18.50
2018-06-12T11:05:38.019Z,18.60
2018-06-12T11:08:19.444Z,18.70
2018-06-12T11:11:01.242Z,18.70
2018-06-12T11:13:42.667Z,18.70
2018-06-12T11:16:25.960Z,18.50
2018-06-12T11:19:07.172Z,18.40
2018-06-12T11:21:48.513Z,18.40
2018-06-12T11:24:29.938Z,18.40
2018-06-12T11:27:11.088Z,18.40
2018-06-12T11:29:53.332Z,18.40
2018-06-12T11:32:34.844Z,18.40
2018-06-12T11:35:16.192Z,18.40
2018-06-12T11:37:58.465Z,18.30
2018-06-12T11:40:39.770Z,18.30
2018-06-12T11:43:21.896Z,18.30
2018-06-12T11:46:03.590Z,18.40
2018-06-12T11:48:44.911Z,18.40
2018-06-12T11:51:27.883Z,18.60
2018-06-12T11:54:10.041Z,18.70
2018-06-12T11:56:51.797Z,18.80
2018-06-12T11:59:33.308Z,18.90
2018-06-12T12:02:14.671Z,19.00
2018-06-12T12:04:56.138Z,19.10
2018-06-12T12:07:37.385Z,19.00
2018-06-12T12:10:21.807Z,18.80
2018-06-12T12:13:04.092Z,18.70
2018-06-12T12:15:45.873Z,18.50
2018-06-12T12:18:27.388Z,18.60
2018-06-12T12:21:09.384Z,18.60
2018-06-12T12:23:50.701Z,18.60
2018-06-12T12:26:32.809Z,18.70
2018-06-12T12:29:14.222Z,18.80
2018-06-12T12:31:56.123Z,18.70
2018-06-12T12:34:37.515Z,18.90
2018-06-12T12:37:19.034Z,19.00
2018-06-12T12:40:01.544Z,19.30
2018-06-12T12:42:43.012Z,19.50
2018-06-12T12:45:24.683Z,19.70
2018-06-12T12:48:06.040Z,19.70
2018-06-12T12:50:47.569Z,19.80
2018-06-12T12:53:28.980Z,19.90
2018-06-12T12:56:10.661Z,20.10
2018-06-12T12:58:53.123Z,20.20
2018-06-12T13:01:34.650Z,20.20
2018-06-12T13:04:16.096Z,20.10
2018-06-12T13:06:57.535Z,20.00
2018-06-12T13:09:39.034Z,20.00
2018-06-12T13:12:20.961Z,20.00
2018-06-12T13:15:02.328Z,20.00
2018-06-12T13:17:43.873Z,20.10
2018-06-12T13:20:25.631Z,20.20
2018-06-12T13:23:07.387Z,20.30
2018-06-12T13:25:48.897Z,20.30
2018-06-12T13:28:30.275Z,20.30
2018-06-12T13:31:11.629Z,20.30
2018-06-12T13:33:55.638Z,20.40
2018-06-12T13:36:37.660Z,20.40
2018-06-12T13:39:19.014Z,20.40
2018-06-12T13:42:00.901Z,20.50
2018-06-12T13:44:43.223Z,20.40
2018-06-12T13:47:25.124Z,20.40
2018-06-12T13:50:06.483Z,20.40
2018-06-12T13:52:47.812Z,20.50
2018-06-12T13:55:29.256Z,20.60
2018-06-12T13:58:10.677Z,20.70
2018-06-12T14:00:53.536Z,20.80
2018-06-12T14:03:37.845Z,20.70
2018-06-12T14:06:19.146Z,20.60
2018-06-12T14:09:00.499Z,20.70
2018-06-12T14:11:42.071Z,20.80
2018-06-12T14:14:24.926Z,20.80
2018-06-12T14:17:06.315Z,20.90
2018-06-12T14:19:47.503Z,20.80
2018-06-12T14:22:28.833Z,20.80
2018-06-12T14:25:10.646Z,20.90
2018-06-12T14:27:52.584Z,20.90
2018-06-12T14:30:33.877Z,20.80
2018-06-12T14:33:15.227Z,20.80
2018-06-12T14:35:57.091Z,20.90
2018-06-12T14:38:38.827Z,20.80
2018-06-12T14:41:20.168Z,20.90
2018-06-12T14:44:02.674Z,20.90
2018-06-12T14:46:44.576Z,20.90
2018-06-12T14:49:28.043Z,20.80
2018-06-12T14:52:09.409Z,20.70
2018-06-12T14:54:51.064Z,20.70
2018-06-12T14:57:33.504Z,20.60
2018-06-12T15:00:15.092Z,20.60
2018-06-12T15:02:57.827Z,20.70
2018-06-12T15:05:39.299Z,20.70
2018-06-12T15:08:20.883Z,20.60
2018-06-12T15:11:02.520Z,20.60
2018-06-12T15:13:43.951Z,20.70
2018-06-12T15:16:29.010Z,20.70
2018-06-12T15:19:10.439Z,20.80
2018-06-12T15:21:51.828Z,20.80
2018-06-12T15:24:33.252Z,20.90
2018-06-12T15:27:15.381Z,21.10
2018-06-12T15:29:57.400Z,21.20
2018-06-12T15:32:38.985Z,21.30
2018-06-12T15:35:20.596Z,21.40
2018-06-12T15:38:02.772Z,21.40
2018-06-12T15:40:44.790Z,21.30
2018-06-12T15:43:26.611Z,21.30
2018-06-12T15:46:07.876Z,21.30
2018-06-12T15:48:49.279Z,21.40
2018-06-12T15:51:31.036Z,21.40
2018-06-12T15:54:12.389Z,21.40
2018-06-12T15:56:54.615Z,21.40
2018-06-12T15:59:36.694Z,21.30
2018-06-12T16:02:18.172Z,21.30
2018-06-12T16:04:59.893Z,21.30
2018-06-12T16:07:41.360Z,21.20
2018-06-12T16:10:24.247Z,21.20
2018-06-12T16:13:06.727Z,21.30
2018-06-12T16:15:48.133Z,21.30
2018-06-12T16:18:29.503Z,21.40
2018-06-12T16:21:12.736Z,21.50
2018-06-12T16:23:55.835Z,21.50
2018-06-12T16:26:37.728Z,21.50
2018-06-12T16:29:19.184Z,21.50
2018-06-12T16:32:01.048Z,21.30
2018-06-12T16:34:42.589Z,21.30
2018-06-12T16:37:24.654Z,21.30
2018-06-12T16:40:06.119Z,21.30
2018-06-12T16:42:47.885Z,21.30
2018-06-12T16:45:29.336Z,21.30
2018-06-12T16:48:10.717Z,21.40
2018-06-12T16:50:53.068Z,21.50
2018-06-12T16:53:34.911Z,21.40
2018-06-12T16:56:16.228Z,21.30
2018-06-12T16:58:58.096Z,21.40
2018-06-12T17:01:39.469Z,21.40
2018-06-12T17:04:20.967Z,21.50
2018-06-12T17:07:04.347Z,21.50
2018-06-12T17:09:46.143Z,21.60
2018-06-12T17:12:28.573Z,21.50
2018-06-12T17:15:09.795Z,21.50
2018-06-12T17:17:51.140Z,21.50
2018-06-12T17:20:32.948Z,21.50
2018-06-12T17:23:14.181Z,21.50
2018-06-12T17:25:55.892Z,21.40
2018-06-12T17:28:37.392Z,21.30
2018-06-12T17:31:18.919Z,21.30
2018-06-12T17:34:02.453Z,21.30
2018-06-12T17:36:44.956Z,21.20
2018-06-12T17:39:26.929Z,21.10
2018-06-12T17:42:10.179Z,21.00
2018-06-12T17:44:55.462Z,21.00
2018-06-12T17:47:36.795Z,21.00
2018-06-12T17:50:19.388Z,21.00
2018-06-12T17:53:00.820Z,20.90
2018-06-12T17:55:42.233Z,20.80
2018-06-12T17:58:24.545Z,20.80
2018-06-12T18:01:05.892Z,20.70
2018-06-12T18:03:47.706Z,20.70
2018-06-12T18:06:29.288Z,20.60
2018-06-12T18:09:10.685Z,20.60
2018-06-12T18:11:52.205Z,20.60
2018-06-12T18:14:33.803Z,20.50
2018-06-12T18:17:15.244Z,20.50
2018-06-12T18:20:03.237Z,20.50
2018-06-12T18:22:44.816Z,20.40
2018-06-12T18:25:27.445Z,20.40
2018-06-12T18:28:08.905Z,20.30
2018-06-12T18:30:50.399Z,20.30
2018-06-12T18:33:31.822Z,20.20
2018-06-12T18:36:13.265Z,20.20
2018-06-12T18:38:55.481Z,20.20
2018-06-12T18:41:38.453Z,20.10
2018-06-12T18:44:20.740Z,20.00
2018-06-12T18:47:02.250Z,20.00
2018-06-12T18:49:43.681Z,19.90
2018-06-12T18:52:25.691Z,19.90
2018-06-12T18:55:07.135Z,19.80
2018-06-12T18:57:48.659Z,19.70
2018-06-12T19:00:29.960Z,19.70
2018-06-12T19:03:11.685Z,19.60
2018-06-12T19:05:54.131Z,19.60
2018-06-12T19:08:35.540Z,19.50
2018-06-12T19:11:16.986Z,19.50
2018-06-12T19:13:59.071Z,19.50
2018-06-12T19:16:41.240Z,19.40
2018-06-12T19:19:22.592Z,19.40
2018-06-12T19:22:04.878Z,19.40
2018-06-12T19:24:46.860Z,19.30
2018-06-12T19:27:29.195Z,19.20
2018-06-12T19:30:15.655Z,19.20
2018-06-12T19:32:58.620Z,19.10
2018-06-12T19:35:40.180Z,19.10
2018-06-12T19:38:21.812Z,19.10
2018-06-12T19:41:04.019Z,19.00
2018-06-12T19:43:45.394Z,19.00
2018-06-12T19:46:28.299Z,19.00
2018-06-12T19:49:09.733Z,18.90
2018-06-12T19:51:51.196Z,18.80
2018-06-12T19:54:32.579Z,18.80
2018-06-12T19:57:14.061Z,18.80
2018-06-12T19:59:59.035Z,18.70
2018-06-12T20:02:40.999Z,18.70
2018-06-12T20:05:22.880Z,18.70
2018-06-12T20:08:04.564Z,18.60
2018-06-12T20:10:45.915Z,18.60
2018-06-12T20:13:27.857Z,18.60
2018-06-12T20:16:09.453Z,18.60
2018-06-12T20:18:51.306Z,18.50
2018-06-12T20:21:32.720Z,18.50
2018-06-12T20:24:14.363Z,18.40
2018-06-12T20:26:56.358Z,18.40
2018-06-12T20:29:37.727Z,18.40
2018-06-12T20:32:19.175Z,18.30
2018-06-12T20:35:00.561Z,18.30
2018-06-12T20:37:43.003Z,18.30
2018-06-12T20:40:27.446Z,18.20
2018-06-12T20:43:09.559Z,18.20
2018-06-12T20:45:51.095Z,18.10
2018-06-12T20:48:32.620Z,18.10
2018-06-12T20:51:14.245Z,18.10
2018-06-12T20:53:56.264Z,18.10
2018-06-12T20:56:37.526Z,18.10
2018-06-12T20:59:18.940Z,18.10
2018-06-12T21:02:00.364Z,18.00
2018-06-12T21:04:41.675Z,18.10
2018-06-12T21:07:23.192Z,18.10
2018-06-12T21:10:05.249Z,18.10
2018-06-12T21:12:46.734Z,18.10
2018-06-12T21:15:29.435Z,18.00
2018-06-12T21:18:10.745Z,18.00
2018-06-12T21:20:52.220Z,18.00
2018-06-12T21:23:33.562Z,17.90
2018-06-12T21:26:14.934Z,17.90
2018-06-12T21:28:57.092Z,17.90
2018-06-12T21:31:38.911Z,17.90
2018-06-12T21:34:20.918Z,17.80
2018-06-12T21:37:02.694Z,17.80
2018-06-12T21:39:44.228Z,17.70
2018-06-12T21:42:28.744Z,17.70
2018-06-12T21:45:10.083Z,17.70
2018-06-12T21:47:51.528Z,17.70
2018-06-12T21:50:32.849Z,17.70
2018-06-12T21:53:14.187Z,17.70
2018-06-12T21:55:56.044Z,17.70
2018-06-12T21:58:44.312Z,17.70
2018-06-12T22:01:28.180Z,17.70
2018-06-12T22:04:09.669Z,17.60
2018-06-12T22:06:50.928Z,17.70
2018-06-12T22:09:32.274Z,17.70
2018-06-12T22:12:13.627Z,17.70
2018-06-12T22:14:55.142Z,17.70
2018-06-12T22:17:49.653Z,17.70
2018-06-12T22:20:30.985Z,17.70
2018-06-12T22:23:12.364Z,17.60
2018-06-12T22:25:53.669Z,17.60
2018-06-12T22:28:35.251Z,17.60
2018-06-12T22:31:16.621Z,17.60
2018-06-12T22:33:58.073Z,17.60
2018-06-12T22:36:39.428Z,17.60
2018-06-12T22:39:20.752Z,17.50
2018-06-12T22:42:02.062Z,17.50
2018-06-12T22:44:43.416Z,17.50
2018-06-12T22:47:26.121Z,17.50
2018-06-12T22:50:08.685Z,17.50
2018-06-12T22:52:50.723Z,17.50
2018-06-12T22:55:31.926Z,17.50
2018-06-12T22:58:13.319Z,17.50
2018-06-12T23:00:55.011Z,17.50
2018-06-12T23:03:36.475Z,17.40
2018-06-12T23:06:17.819Z,17.40
2018-06-12T23:09:00.434Z,17.40
2018-06-12T23:11:41.871Z,17.40
2018-06-12T23:14:25.360Z,17.40
2018-06-12T23:17:06.872Z,17.40
2018-06-12T23:20:05.327Z,17.30
2018-06-12T23:22:47.079Z,17.30
2018-06-12T23:25:29.569Z,17.30
2018-06-12T23:28:11.142Z,17.20
2018-06-12T23:30:52.614Z,17.20
2018-06-12T23:33:35.077Z,17.20
2018-06-12T23:36:16.532Z,17.20
2018-06-12T23:38:57.969Z,17.10
2018-06-12T23:41:39.451Z,17.10
2018-06-12T23:44:20.666Z,17.10
2018-06-12T23:47:02.076Z,17.10
2018-06-12T23:49:44.000Z,17.10
2018-06-12T23:52:26.117Z,17.10
2018-06-12T23:55:08.604Z,17.00
2018-06-12T23:57:50.204Z,17.10
